Latest Weather Observations for Rhyll

IDV60801

Issued at 11:02 pm EDT Friday 30 January 2015 (issued every 30 minutes, with the page automatically refreshed every 10 minutes)

About weather observations | Map of weather stations | Latest weather observations for VIC | Other Formats
Station Details ID: 086373 Name: RHYLL Lat: -38.46 Lon: 145.31 Height: 13.4 m
Data from the previous 72 hours. | See also: Recent months at Rhyll
Date/Time
EDT
Temp
°C
App
Temp
°C
Dew
Point
Rel
Hum
%
Delta-T
°C
Wind Press
QNH
hPa
Press
MSL
hPa
Rain
since 9 am
mm
Dir
 
Spd
km/h
Gust
km/h
Spd
kts
Gust
kts
30/11:00pm 15.2 14.3 11.2 77 2.1 SW 7 13 4 7 1013.2 1013.1 0.2
30/10:30pm 14.9 13.8 10.7 76 2.2 SW 7 11 4 6 1013.3 1013.2 0.2
30/10:00pm 14.9 13.7 10.3 74 2.4 SW 7 11 4 6 1013.6 1013.5 0.2
30/09:30pm 15.0 13.8 10.4 74 2.4 SW 7 9 4 5 1013.5 1013.4 0.2
30/09:00pm 15.3 14.1 10.3 72 2.6 SW 7 13 4 7 1013.4 1013.3 0.2
30/08:30pm 16.0 14.2 11.0 72 2.7 SSW 11 17 6 9 1013.6 1013.5 0.2
30/08:00pm 16.7 14.7 10.3 66 3.4 SSW 11 20 6 11 1013.7 1013.6 0.2
30/07:30pm 17.2 14.8 10.1 63 3.8 SSW 13 22 7 12 1013.8 1013.7 0.2
30/07:00pm 17.5 15.5 10.1 62 3.9 S 11 19 6 10 1013.7 1013.6 0.2
30/06:30pm 18.6 16.8 10.9 61 4.2 S 11 20 6 11 1013.7 1013.6 0.2
30/06:00pm 19.3 16.7 10.6 57 4.7 S 15 24 8 13 1014.0 1013.9 0.2
30/05:30pm 20.4 17.8 10.8 54 5.2 S 15 26 8 14 1014.1 1014.0 0.2
30/05:00pm 20.1 17.6 11.1 56 4.9 S 15 24 8 13 1014.3 1014.2 0.2
30/04:30pm 20.0 17.2 10.1 53 5.3 S 15 20 8 11 1014.4 1014.3 0.2
30/04:00pm 21.8 19.9 12.9 57 5.1 S 15 26 8 14 1014.7 1014.6 0.2
30/03:30pm 20.3 17.8 11.0 55 5.1 S 15 24 8 13 1014.9 1014.8 0.2
30/03:00pm 20.7 18.4 11.9 57 4.9 S 15 24 8 13 1015.2 1015.1 0.2
30/02:30pm 18.7 16.6 9.8 56 4.7 S 11 22 6 12 1015.4 1015.3 0.2
30/02:00pm 19.7 17.5 10.9 57 4.8 S 13 24 7 13 1015.6 1015.5 0.2
30/01:30pm 20.1 18.4 11.1 56 4.9 S 11 22 6 12 1015.9 1015.8 0.2
30/01:00pm 21.0 19.3 11.3 54 5.4 S 11 20 6 11 1016.1 1016.0 0.2
30/12:30pm 20.1 18.0 9.9 52 5.5 S 11 19 6 10 1016.2 1016.1 0.2
30/12:00pm 20.4 19.0 10.8 54 5.2 S 9 17 5 9 1016.3 1016.2 0.2
30/11:30am 20.3 18.8 10.7 54 5.2 S 9 15 5 8 1016.6 1016.5 0.2
30/11:00am 19.7 18.0 9.9 53 5.2 SE 9 17 5 9 1016.8 1016.7 0.2
30/10:30am 19.3 17.3 10.3 56 4.8 SSE 11 17 6 9 1016.9 1016.8 0.0
30/10:00am 18.8 17.2 11.6 63 3.9 ESE 11 19 6 10 1016.9 1016.8 0.0
30/09:30am 18.8 17.7 11.9 64 3.8 ESE 9 19 5 10 1017.0 1016.9 0.0
30/09:00am 17.6 17.4 11.9 69 3.1 SE 4 6 2 3 1017.0 1016.9 0.0
30/08:30am 16.8 16.7 12.1 74 2.6 ESE 4 7 2 4 1016.9 1016.8 0.0
30/08:00am 15.6 15.3 11.4 76 2.3 ESE 4 7 2 4 1016.7 1016.6 0.0
30/07:30am 14.6 14.0 11.6 82 1.6 ESE 6 9 3 5 1016.4 1016.3 0.0
30/07:00am 14.2 13.3 11.4 83 1.5 ESE 7 15 4 8 1016.4 1016.3 0.0
30/06:30am 14.1 11.7 11.4 84 1.4 ESE 15 19 8 10 1016.4 1016.3 0.0
30/06:00am 14.2 12.6 11.7 85 1.3 ESE 11 19 6 10 1016.4 1016.3 0.0
30/05:30am 14.4 11.1 11.6 83 1.5 ESE 20 28 11 15 1016.5 1016.4 0.0
30/05:00am 14.1 12.3 12.0 87 1.1 E 13 17 7 9 1016.4 1016.3 0.0
30/04:30am 14.1 10.9 12.0 87 1.1 E 20 22 11 12 1016.4 1016.3 0.0
30/04:00am 13.8 11.5 11.8 88 1.1 E 15 24 8 13 1016.6 1016.5 0.0
30/03:30am 14.3 11.7 12.0 86 1.2 E 17 22 9 12 1016.9 1016.8 0.0
30/03:00am 14.6 10.6 11.9 84 1.5 E 24 32 13 17 1017.2 1017.2 0.0
30/02:30am 14.7 13.8 11.5 81 1.7 SSE 7 11 4 6 1017.4 1017.4 0.0
30/02:00am 14.9 13.0 11.9 82 1.6 ESE 13 17 7 9 1017.5 1017.5 0.0
30/01:30am 14.9 11.4 12.2 84 1.5 ESE 22 28 12 15 1017.9 1017.9 0.0
30/01:00am 14.9 11.1 12.4 85 1.4 ESE 24 32 13 17 1018.3 1018.3 0.0
30/12:30am 15.8 12.8 11.8 77 2.2 ESE 19 24 10 13 1018.4 1018.4 0.0
30/12:00am 15.8 12.6 11.8 77 2.2 E 20 24 11 13 1018.6 1018.6 0.0
 
Date/Time
EDT
Temp
°C
App
Temp
°C
Dew
Point
Rel
Hum
%
Delta-T
°C
Wind Press
QNH
hPa
Press
MSL
hPa
Rain
since 9 am
mm
Dir
 
Spd
km/h
Gust
km/h
Spd
kts
Gust
kts
29/11:30pm 16.0 12.3 11.4 74 2.5 ESE 22 28 12 15 1018.7 1018.7 0.0
29/11:00pm 16.1 12.0 11.5 74 2.5 ESE 24 30 13 16 1018.8 1018.8 0.0
29/10:30pm 16.2 11.3 11.4 73 2.6 ESE 28 33 15 18 1019.0 1019.0 0.0
29/10:00pm 16.3 12.3 11.7 74 2.5 ESE 24 28 13 15 1019.1 1019.1 0.0
29/09:30pm 16.5 12.8 11.6 73 2.7 ESE 22 30 12 16 1019.1 1019.1 0.0
29/09:00pm 17.1 12.8 12.2 73 2.7 SE 26 39 14 21 1018.8 1018.8 0.0
29/08:30pm 16.9 13.8 12.2 74 2.6 SE 20 30 11 16 1018.6 1018.6 0.0
29/08:00pm 17.3 13.5 12.4 73 2.7 SE 24 32 13 17 1018.5 1018.5 0.0
29/07:30pm 17.4 13.9 12.1 71 2.9 SE 22 32 12 17 1018.5 1018.5 0.0
29/07:00pm 17.6 13.4 12.3 71 2.9 SE 26 35 14 19 1018.5 1018.5 0.0
29/06:30pm 18.0 14.3 12.7 71 3.0 SE 24 33 13 18 1018.4 1018.4 0.0
29/06:00pm 17.8 13.8 11.8 68 3.3 SE 24 35 13 19 1018.6 1018.6 0.0
29/05:30pm 18.6 14.4 12.4 67 3.5 SSE 26 37 14 20 1018.9 1018.9 0.0
29/05:00pm 18.3 14.3 11.8 66 3.6 SSE 24 35 13 19 1019.2 1019.2 0.0
29/04:30pm 19.5 15.1 12.8 65 3.8 SSE 28 39 15 21 1019.4 1019.4 0.0
29/04:00pm 18.5 14.2 12.0 66 3.6 SSE 26 39 14 21 1019.4 1019.4 0.0
29/03:30pm 19.4 15.1 12.2 63 4.0 SSE 26 43 14 23 1019.7 1019.7 0.0
29/03:00pm 19.0 14.6 11.8 63 4.0 SSE 26 41 14 22 1020.0 1020.0 0.0
29/02:30pm 19.4 14.7 11.9 62 4.2 SSE 28 41 15 22 1020.1 1020.1 0.0
29/02:00pm 19.3 15.2 11.6 61 4.2 SSE 24 37 13 20 1020.3 1020.3 0.0
29/01:30pm 19.7 15.8 12.0 61 4.3 SSE 24 37 13 20 1020.5 1020.5 0.0
29/01:00pm 20.1 17.0 13.3 65 3.9 SSE 22 32 12 17 1020.6 1020.6 0.0
29/12:30pm 19.6 15.7 12.1 62 4.2 SSE 24 39 13 21 1020.7 1020.7 0.0
29/12:00pm 18.9 14.7 11.2 61 4.2 SSE 24 33 13 18 1020.8 1020.8 0.0
29/11:30am 20.0 17.2 13.2 65 3.9 SSE 20 30 11 16 1021.0 1021.0 0.0
29/11:00am 19.0 15.7 11.6 62 4.1 SSE 20 32 11 17 1021.1 1021.1 0.0
29/10:30am 18.6 15.2 11.2 62 4.0 SE 20 32 11 17 1021.1 1021.1 0.0
29/10:00am 18.1 14.7 11.4 65 3.6 SE 20 28 11 15 1021.2 1021.2 0.0
29/09:30am 18.6 15.7 10.9 61 4.2 SE 17 37 9 20 1021.1 1021.1 0.0
29/09:00am 17.9 14.6 11.0 64 3.7 SE 19 32 10 17 1021.2 1021.2 0.0
29/08:30am 17.2 13.4 11.0 67 3.3 ESE 22 32 12 17 1021.1 1021.1 0.0
29/08:00am 16.7 12.2 11.4 71 2.9 ESE 26 35 14 19 1020.8 1020.8 0.0
29/07:30am 16.1 11.6 11.5 74 2.5 ESE 26 32 14 17 1020.7 1020.7 0.0
29/07:00am 15.0 12.3 11.8 81 1.7 ESE 17 22 9 12 1020.5 1020.5 0.0
29/06:30am 14.2 11.2 10.6 79 1.9 E 17 24 9 13 1020.2 1020.2 0.0
29/06:00am 15.5 10.5 10.9 74 2.4 ESE 28 33 15 18 1019.9 1019.9 0.0
29/05:30am 15.3 10.8 11.5 78 2.0 ESE 26 32 14 17 1019.7 1019.7 0.0
29/05:00am 15.0 9.8 10.4 74 2.4 ESE 28 32 15 17 1019.5 1019.5 0.0
29/04:30am 15.0 10.8 11.0 77 2.1 ESE 24 30 13 16 1019.5 1019.5 0.0
29/04:00am 14.8 11.0 11.0 78 2.0 ESE 22 28 12 15 1019.6 1019.6 0.0
29/03:30am 14.9 12.0 10.9 77 2.1 ESE 17 22 9 12 1019.8 1019.8 0.0
29/03:00am 14.9 11.4 10.9 77 2.1 ESE 20 24 11 13 1019.8 1019.8 0.0
29/02:30am 15.0 11.1 10.8 76 2.2 E 22 26 12 14 1020.1 1020.1 0.0
29/02:00am 15.3 11.4 10.9 75 2.3 ESE 22 28 12 15 1020.3 1020.3 0.0
29/01:30am 15.4 11.6 11.2 76 2.2 ESE 22 28 12 15 1020.6 1020.6 0.0
29/01:00am 15.4 11.7 11.6 78 2.0 ESE 22 28 12 15 1020.6 1020.6 0.0
29/12:30am 15.3 11.2 11.5 78 2.0 ESE 24 28 13 15 1020.8 1020.8 0.0
29/12:00am 15.6 11.2 11.8 78 2.1 ESE 26 30 14 16 1020.7 1020.7 0.0
 
Date/Time
EDT
Temp
°C
App
Temp
°C
Dew
Point
Rel
Hum
%
Delta-T
°C
Wind Press
QNH
hPa
Press
MSL
hPa
Rain
since 9 am
mm
Dir
 
Spd
km/h
Gust
km/h
Spd
kts
Gust
kts
28/11:30pm 15.9 11.2 12.1 78 2.1 ESE 28 35 15 19 1020.7 1020.7 0.0
28/11:00pm 16.1 10.6 11.7 75 2.4 ESE 32 39 17 21 1020.9 1020.9 0.0
28/10:30pm 16.4 10.9 12.0 75 2.4 ESE 32 41 17 22 1020.8 1020.8 0.0
28/10:00pm 16.7 10.3 12.0 74 2.6 ESE 37 48 20 26 1020.7 1020.7 0.0
28/09:30pm 17.0 11.9 11.9 72 2.8 ESE 30 46 16 25 1020.5 1020.5 0.0
28/09:27pm 17.0 12.3 11.9 72 2.8 SE 28 46 15 25 1020.4 1020.4 0.0
28/09:00pm 17.4 11.9 11.7 69 3.1 ESE 32 41 17 22 1020.1 1020.1 0.0
28/08:30pm 17.9 12.0 11.0 64 3.7 ESE 33 37 18 20 1019.9 1019.9 0.0
28/08:00pm 18.6 13.0 11.4 63 3.9 ESE 32 39 17 21 1019.6 1019.6 0.0
28/07:30pm 18.4 15.7 13.5 73 2.8 SE 20 33 11 18 1019.5 1019.5 0.0
28/07:00pm 18.4 15.0 12.4 68 3.3 SE 22 32 12 17 1019.3 1019.3 0.0
28/06:30pm 18.8 15.0 12.3 66 3.6 SE 24 33 13 18 1019.3 1019.3 0.0
28/06:00pm 19.0 14.2 11.8 63 4.0 SSE 28 43 15 23 1019.2 1019.2 0.0
28/05:30pm 19.2 14.0 11.5 61 4.2 SSE 30 41 16 22 1019.2 1019.2 0.0
28/05:00pm 19.5 14.4 12.0 62 4.2 SE 30 39 16 21 1019.2 1019.2 0.0
28/04:30pm 19.8 14.5 12.6 63 4.0 SSE 32 43 17 23 1019.2 1019.2 0.0
28/04:00pm 20.1 14.7 14.0 68 3.5 SSE 35 46 19 25 1019.1 1019.1 0.0
28/03:30pm 20.2 15.5 14.3 69 3.4 SSE 32 46 17 25 1019.2 1019.2 0.0
28/03:00pm 20.7 15.9 14.6 68 3.6 SSE 33 43 18 23 1019.1 1019.1 0.0
28/02:30pm 20.6 15.7 13.6 64 4.0 SSE 32 46 17 25 1019.0 1019.0 0.0
28/02:00pm 21.1 16.3 14.5 66 3.9 SSE 33 46 18 25 1019.1 1019.1 0.0
28/01:30pm 20.8 15.4 12.8 60 4.5 SSE 33 43 18 23 1019.2 1019.2 0.0
28/01:00pm 20.8 16.3 13.7 64 4.1 SSE 30 41 16 22 1019.1 1019.1 0.0
28/12:30pm 20.7 16.8 13.2 62 4.3 SE 26 35 14 19 1019.1 1019.1 0.0
28/12:00pm 20.3 17.3 12.5 61 4.4 SE 20 30 11 16 1019.1 1019.1 0.0
28/11:30am 21.3 17.5 13.7 62 4.4 SE 26 41 14 22 1019.2 1019.2 0.0
28/11:00am 20.6 16.3 13.1 62 4.3 SE 28 39 15 21 1019.2 1019.2 0.0
28/10:30am 20.2 14.9 13.2 64 4.0 ESE 33 41 18 22 1019.4 1019.4 0.0
28/10:00am 19.2 14.1 13.2 68 3.4 ESE 32 43 17 23 1019.4 1019.4 0.0
28/09:30am 18.2 12.9 12.6 70 3.1 ESE 32 41 17 22 1019.3 1019.3 0.0
28/09:00am 18.4 13.0 12.2 67 3.4 E 32 37 17 20 1019.3 1019.3 0.0
28/08:30am 17.2 11.2 12.1 72 2.8 ESE 35 43 19 23 1018.7 1018.7 0.0
28/08:00am 16.9 13.0 12.2 74 2.6 ESE 24 32 13 17 1018.5 1018.5 0.0
28/07:30am 16.2 11.3 11.4 73 2.6 ESE 28 33 15 18 1018.4 1018.4 0.0
28/07:00am 15.4 12.0 11.2 76 2.2 ESE 20 30 11 16 1018.2 1018.2 0.0
28/06:30am 14.6 10.7 10.8 78 2.0 E 22 32 12 17 1018.0 1018.0 0.0
28/06:00am 15.1 11.5 9.7 70 2.8 ESE 19 30 10 16 1017.5 1017.5 0.0
28/05:30am 14.9 13.2 9.9 72 2.6 SE 9 19 5 10 1017.1 1017.1 0.0
28/05:00am 14.7 12.1 10.7 77 2.1 ESE 15 19 8 10 1017.2 1017.2 0.0
28/04:30am 14.2 11.2 10.8 80 1.8 E 17 20 9 11 1017.1 1017.1 0.0
28/04:00am 15.3 12.8 11.1 76 2.2 ESE 15 20 8 11 1016.9 1016.8 0.0
28/03:30am 14.8 12.7 11.0 78 2.0 ESE 13 17 7 9 1017.1 1017.1 0.0
28/03:00am 14.6 12.7 10.6 77 2.1 ESE 11 15 6 8 1017.3 1017.3 0.0
28/02:30am 15.0 13.6 11.0 77 2.1 ESE 9 15 5 8 1017.4 1017.4 0.0
28/02:00am 15.1 13.4 11.1 77 2.1 ESE 11 17 6 9 1017.6 1017.6 0.0
28/01:30am 14.7 13.6 10.5 76 2.2 SSE 7 9 4 5 1017.8 1017.8 0.0
28/01:00am 14.5 13.4 10.5 77 2.1 SSE 7 13 4 7 1018.2 1018.2 0.0
28/12:30am 14.7 13.1 10.1 74 2.4 SSE 9 13 5 7 1018.3 1018.3 0.0
28/12:00am 15.4 13.5 10.4 72 2.6 S 11 15 6 8 1018.3 1018.3 0.0
 
Date/Time
EDT
Temp
°C
App
Temp
°C
Dew
Point
Rel
Hum
%
Delta-T
°C
Wind Press
QNH
hPa
Press
MSL
hPa
Rain
since 9 am
mm
Dir
 
Spd
km/h
Gust
km/h
Spd
kts
Gust
kts
27/11:30pm 15.3 13.5 10.7 74 2.4 S 11 19 6 10 1018.4 1018.4 0.0

Other Formats:

Comma delimited format used in spreadsheet applications
http://www.bom.gov.au/fwo/IDV60801/IDV60801.94892.axf

JavaScript Object Notation format (JSON) in row-major order
http://www.bom.gov.au/fwo/IDV60801/IDV60801.94892.json